Time;durP1;ratioP1;P1;durP2;ratioP2;P2;SDS_P1;SDS_P2;PMS_P1;PMS_P2;Temp;Humidity;BMP_temperature;BMP_pressure;BME280_temperature;BME280_humidity;BME280_pressure;Samples;Min_cycle;Max_cycle;Signal;HPM_P1;HPM_P2
2022/10/31 00:01:45;;;;;;;0.50;0.50;;;;;;;;;;5017068;28;92111;-49
2022/10/31 00:04:13;;;;;;;0.50;0.50;;;;;;;;;;5018541;28;94358;-49
2022/10/31 00:06:41;;;;;;;0.83;0.70;;;;;;;;;;5017940;28;93921;-49
2022/10/31 00:09:10;;;;;;;0.70;0.70;;;;;;;;;;5019805;28;92075;-49
2022/10/31 00:11:39;;;;;;;1.57;0.50;;;;;;;;;;5018045;28;91920;-49
2022/10/31 00:14:08;;;;;;;0.60;0.60;;;;;;;;;;5019921;28;94198;-49
2022/10/31 00:16:37;;;;;;;2.87;0.80;;;;;;;;;;5019142;28;92569;-49
2022/10/31 00:19:05;;;;;;;1.33;0.60;;;;;;;;;;5018190;28;92067;-49
2022/10/31 00:21:34;;;;;;;1.20;0.83;;;;;;;;;;5020172;28;91235;-49
2022/10/31 00:24:02;;;;;;;0.40;0.40;;;;;;;;;;5019118;28;93000;-49
2022/10/31 00:26:30;;;;;;;0.90;0.50;;;;;;;;;;5019492;28;93986;-49
2022/10/31 00:28:59;;;;;;;0.63;0.43;;;;;;;;;;5019198;28;93115;-49
2022/10/31 00:31:28;;;;;;;0.67;0.40;;;;;;;;;;5031595;28;93116;-49
2022/10/31 00:33:57;;;;;;;0.60;0.57;;;;;;;;;;5011238;28;94148;-49
2022/10/31 00:36:25;;;;;;;0.50;0.47;;;;;;;;;;5010078;28;92837;-49
2022/10/31 00:38:53;;;;;;;0.70;0.47;;;;;;;;;;5020032;28;92054;-48
2022/10/31 00:41:21;;;;;;;0.70;0.70;;;;;;;;;;5014251;28;92300;-48
2022/10/31 00:43:50;;;;;;;0.40;0.40;;;;;;;;;;5002727;28;92800;-49
2022/10/31 00:46:18;;;;;;;0.53;0.53;;;;;;;;;;5000879;28;93837;-49
2022/10/31 00:48:48;;;;;;;0.80;0.60;;;;;;;;;;4999343;28;92740;-49
2022/10/31 00:51:16;;;;;;;0.50;0.50;;;;;;;;;;4999811;28;92082;-49
2022/10/31 00:53:45;;;;;;;1.23;0.43;;;;;;;;;;5003274;28;93877;-49
2022/10/31 00:56:13;;;;;;;0.70;0.67;;;;;;;;;;4999429;28;92413;-49
2022/10/31 00:58:41;;;;;;;1.67;0.60;;;;;;;;;;5000617;28;92070;-49
2022/10/31 01:01:09;;;;;;;1.13;0.80;;;;;;;;;;5001431;28;92220;-49
2022/10/31 01:03:39;;;;;;;0.40;0.40;;;;;;;;;;5000193;28;94143;-49
2022/10/31 01:06:10;;;;;;;1.27;0.50;;;;;;;;;;5010096;28;93854;-49
2022/10/31 01:08:38;;;;;;;0.50;0.50;;;;;;;;;;4997707;28;92083;-51
2022/10/31 01:11:07;;;;;;;0.97;0.60;;;;;;;;;;4999944;28;91195;-49
2022/10/31 01:13:36;;;;;;;0.93;0.50;;;;;;;;;;4999103;28;94157;-50
2022/10/31 01:16:05;;;;;;;1.40;0.70;;;;;;;;;;5011030;28;92696;-48
2022/10/31 01:18:33;;;;;;;0.40;0.40;;;;;;;;;;5000774;28;92996;-49
2022/10/31 01:21:02;;;;;;;0.70;0.63;;;;;;;;;;5004421;28;92180;-49
2022/10/31 01:23:31;;;;;;;0.60;0.43;;;;;;;;;;5000012;28;93310;-49
2022/10/31 01:26:03;;;;;;;0.57;0.57;;;;;;;;;;4997982;28;94031;-49
2022/10/31 01:28:31;;;;;;;0.87;0.53;;;;;;;;;;4998481;28;91995;-49
2022/10/31 01:31:03;;;;;;;1.27;0.70;;;;;;;;;;5002097;28;92087;-49
2022/10/31 01:33:31;;;;;;;0.83;0.57;;;;;;;;;;5006548;28;94226;-49
2022/10/31 01:36:00;;;;;;;1.63;0.63;;;;;;;;;;5008567;28;92826;-49
2022/10/31 01:38:28;;;;;;;1.53;0.83;;;;;;;;;;5000174;28;92033;-50
2022/10/31 01:40:58;;;;;;;0.70;0.70;;;;;;;;;;4997903;28;92285;-49
2022/10/31 01:43:28;;;;;;;0.60;0.60;;;;;;;;;;4996822;28;94244;-49
2022/10/31 01:45:56;;;;;;;0.20;0.20;;;;;;;;;;4994889;28;94882;-49
2022/10/31 01:48:26;;;;;;;0.73;0.57;;;;;;;;;;4998907;28;92041;-49
2022/10/31 01:50:54;;;;;;;0.80;0.40;;;;;;;;;;4998283;28;93337;-49
2022/10/31 01:53:22;;;;;;;0.50;0.50;;;;;;;;;;4998063;28;93199;-49
2022/10/31 01:55:54;;;;;;;1.63;0.73;;;;;;;;;;4998282;28;93785;-50
2022/10/31 01:58:24;;;;;;;0.40;0.40;;;;;;;;;;4998927;28;92062;-49
2022/10/31 02:00:53;;;;;;;0.45;0.40;;;;;;;;;;4998532;28;91388;-49
2022/10/31 02:03:21;;;;;;;0.40;0.40;;;;;;;;;;4998458;28;93278;-50
2022/10/31 02:05:49;;;;;;;1.90;0.90;;;;;;;;;;4997801;28;93738;-49
2022/10/31 02:08:18;;;;;;;0.27;0.27;;;;;;;;;;4998264;28;93117;-49
2022/10/31 02:10:47;;;;;;;0.37;0.37;;;;;;;;;;4998802;28;92044;-49
2022/10/31 02:13:15;;;;;;;0.73;0.50;;;;;;;;;;4998398;28;93354;-49
2022/10/31 02:15:45;;;;;;;0.40;0.40;;;;;;;;;;4997865;28;94222;-49
2022/10/31 02:18:13;;;;;;;1.50;0.57;;;;;;;;;;4997990;28;92159;-50
2022/10/31 02:20:43;;;;;;;1.07;0.60;;;;;;;;;;4998792;28;92120;-49
2022/10/31 02:23:22;;;;;;;0.60;0.60;;;;;;;;;;4998458;28;94180;-49
2022/10/31 02:26:00;;;;;;;0.67;0.67;;;;;;;;;;4998165;28;92812;-49
2022/10/31 02:28:35;;;;;;;0.43;0.43;;;;;;;;;;4993217;28;92618;-49
2022/10/31 02:31:09;;;;;;;0.60;0.33;;;;;;;;;;5001842;28;92103;-49
2022/10/31 02:33:38;;;;;;;0.77;0.50;;;;;;;;;;5001181;28;95263;-49
2022/10/31 02:36:06;;;;;;;0.37;0.37;;;;;;;;;;4991956;28;94808;-49
2022/10/31 02:38:40;;;;;;;0.40;0.40;;;;;;;;;;5002551;28;91915;-50
2022/10/31 02:41:11;;;;;;;0.70;0.50;;;;;;;;;;5001321;28;92170;-50
2022/10/31 02:43:41;;;;;;;0.97;0.50;;;;;;;;;;4999797;28;94485;-49
2022/10/31 02:46:12;;;;;;;0.40;0.40;;;;;;;;;;5001388;28;92596;-49
2022/10/31 02:48:41;;;;;;;0.60;0.60;;;;;;;;;;5000721;28;91957;-49
2022/10/31 02:51:09;;;;;;;0.53;0.40;;;;;;;;;;5002000;28;92370;-49
2022/10/31 02:53:37;;;;;;;0.50;0.50;;;;;;;;;;5001731;28;93380;-49
2022/10/31 02:56:06;;;;;;;0.63;0.60;;;;;;;;;;5001048;28;93753;-49
2022/10/31 02:58:35;;;;;;;0.50;0.50;;;;;;;;;;5000848;28;93473;-49
2022/10/31 03:01:11;;;;;;;0.37;0.37;;;;;;;;;;5007241;28;92157;-49
2022/10/31 03:03:43;;;;;;;0.73;0.67;;;;;;;;;;5003325;28;92055;-49
2022/10/31 03:06:13;;;;;;;0.40;0.40;;;;;;;;;;5001077;28;93723;-49
2022/10/31 03:08:43;;;;;;;0.77;0.70;;;;;;;;;;5000708;28;92480;-49
2022/10/31 03:11:11;;;;;;;0.60;0.60;;;;;;;;;;5000384;28;92056;-49
2022/10/31 03:13:41;;;;;;;0.93;0.57;;;;;;;;;;5001064;28;93366;-49
2022/10/31 03:16:10;;;;;;;0.40;0.40;;;;;;;;;;5000814;28;92950;-49
2022/10/31 03:18:39;;;;;;;4.17;0.70;;;;;;;;;;4994314;28;92130;-49
2022/10/31 03:21:09;;;;;;;0.80;0.57;;;;;;;;;;5001547;28;92091;-49
2022/10/31 03:23:37;;;;;;;0.43;0.43;;;;;;;;;;4999166;28;95022;-49
2022/10/31 03:26:06;;;;;;;0.30;0.30;;;;;;;;;;5000525;28;94526;-49
2022/10/31 03:28:35;;;;;;;1.37;0.53;;;;;;;;;;5001233;28;91999;-49
2022/10/31 03:31:03;;;;;;;2.10;0.63;;;;;;;;;;5001127;28;92048;-49
2022/10/31 03:33:34;;;;;;;1.23;0.60;;;;;;;;;;4999497;28;93779;-48
2022/10/31 03:36:04;;;;;;;0.83;0.53;;;;;;;;;;5000337;28;92725;-49
2022/10/31 03:38:33;;;;;;;0.83;0.60;;;;;;;;;;5000487;28;92572;-49
2022/10/31 03:41:02;;;;;;;2.17;0.80;;;;;;;;;;5001375;28;92492;-49
2022/10/31 03:43:30;;;;;;;1.67;0.63;;;;;;;;;;5017635;28;93341;-49
2022/10/31 03:45:58;;;;;;;0.70;0.70;;;;;;;;;;5018608;28;92574;-49
2022/10/31 03:48:27;;;;;;;0.47;0.40;;;;;;;;;;5003383;28;92998;-49
2022/10/31 03:50:58;;;;;;;1.07;0.50;;;;;;;;;;5015946;28;92067;-49
2022/10/31 03:53:27;;;;;;;2.47;0.77;;;;;;;;;;5017908;28;93450;-49
2022/10/31 03:55:58;;;;;;;0.60;0.60;;;;;;;;;;4990991;28;92786;-49
2022/10/31 03:58:27;;;;;;;0.53;0.53;;;;;;;;;;5001214;28;91997;-49
2022/10/31 04:00:56;;;;;;;0.50;0.40;;;;;;;;;;5004670;28;92038;-49
2022/10/31 04:03:24;;;;;;;0.80;0.50;;;;;;;;;;5006362;28;94256;-49
2022/10/31 04:05:53;;;;;;;0.70;0.70;;;;;;;;;;5019854;28;93808;-49
2022/10/31 04:08:22;;;;;;;3.40;0.53;;;;;;;;;;5008862;28;92309;-49
2022/10/31 04:10:50;;;;;;;0.97;0.60;;;;;;;;;;5007036;28;92017;-49
2022/10/31 04:13:21;;;;;;;0.43;0.40;;;;;;;;;;5012486;28;95127;-49
2022/10/31 04:15:49;;;;;;;0.77;0.40;;;;;;;;;;5020513;28;93898;-49
2022/10/31 04:18:17;;;;;;;1.50;0.63;;;;;;;;;;5011379;28;92033;-49
2022/10/31 04:20:45;;;;;;;0.40;0.40;;;;;;;;;;5000911;28;92324;-49
2022/10/31 04:23:15;;;;;;;1.03;0.70;;;;;;;;;;5008686;28;92984;-49
2022/10/31 04:25:44;;;;;;;0.50;0.50;;;;;;;;;;5019295;28;93893;-49
2022/10/31 04:28:12;;;;;;;1.40;0.63;;;;;;;;;;5016801;28;92080;-49
2022/10/31 04:30:41;;;;;;;0.50;0.50;;;;;;;;;;5006372;28;91200;-49
2022/10/31 04:33:10;;;;;;;2.80;0.83;;;;;;;;;;5007508;28;94021;-49
2022/10/31 04:35:38;;;;;;;0.50;0.50;;;;;;;;;;5003636;28;93914;-49
2022/10/31 04:38:06;;;;;;;1.87;0.70;;;;;;;;;;5015554;28;93081;-49
2022/10/31 04:40:35;;;;;;;1.13;0.47;;;;;;;;;;5018385;28;91999;-49
2022/10/31 04:43:03;;;;;;;0.63;0.50;;;;;;;;;;5016827;28;93326;-49
2022/10/31 04:45:32;;;;;;;1.73;0.63;;;;;;;;;;5019276;28;91905;-49
2022/10/31 04:48:01;;;;;;;0.53;0.53;;;;;;;;;;5017476;28;91971;-49
2022/10/31 04:50:30;;;;;;;0.83;0.50;;;;;;;;;;5018588;28;91869;-49
2022/10/31 04:52:58;;;;;;;0.77;0.77;;;;;;;;;;5019351;28;94032;-49
2022/10/31 04:55:27;;;;;;;0.80;0.80;;;;;;;;;;5019463;28;92760;-49
2022/10/31 04:57:55;;;;;;;0.50;0.50;;;;;;;;;;5018415;28;92063;-49
2022/10/31 05:00:23;;;;;;;0.73;0.63;;;;;;;;;;5017112;28;91973;-49
2022/10/31 05:02:52;;;;;;;0.70;0.70;;;;;;;;;;5018450;28;95043;-49
2022/10/31 05:05:22;;;;;;;3.00;0.97;;;;;;;;;;5006106;28;93896;-49
2022/10/31 05:07:50;;;;;;;1.67;0.73;;;;;;;;;;5018496;28;92161;-49
2022/10/31 05:10:19;;;;;;;0.77;0.70;;;;;;;;;;5019231;28;92062;-49
2022/10/31 05:12:48;;;;;;;0.87;0.67;;;;;;;;;;5016232;28;92902;-49
2022/10/31 05:15:16;;;;;;;0.73;0.60;;;;;;;;;;5018923;28;92082;-49
2022/10/31 05:17:44;;;;;;;1.40;0.67;;;;;;;;;;5015228;28;93881;-49
2022/10/31 05:20:13;;;;;;;0.70;0.70;;;;;;;;;;5017951;28;91361;-49
2022/10/31 05:22:44;;;;;;;0.83;0.57;;;;;;;;;;5017776;28;94256;-49
2022/10/31 05:25:13;;;;;;;0.50;0.50;;;;;;;;;;5018540;28;95250;-49
2022/10/31 05:27:41;;;;;;;0.80;0.80;;;;;;;;;;5016096;28;92950;-49
2022/10/31 05:30:10;;;;;;;0.80;0.60;;;;;;;;;;5019094;28;92169;-49
2022/10/31 05:32:39;;;;;;;0.67;0.53;;;;;;;;;;5017646;28;93124;-49
2022/10/31 05:35:08;;;;;;;0.50;0.50;;;;;;;;;;5015613;28;93995;-49
2022/10/31 05:37:37;;;;;;;0.50;0.50;;;;;;;;;;5014435;28;92122;-49
2022/10/31 05:40:07;;;;;;;0.50;0.50;;;;;;;;;;5017922;28;92086;-49
2022/10/31 05:42:36;;;;;;;0.60;0.60;;;;;;;;;;5018263;28;94122;-49
2022/10/31 05:45:04;;;;;;;1.13;0.50;;;;;;;;;;5017532;28;92368;-49
2022/10/31 05:47:32;;;;;;;0.73;0.60;;;;;;;;;;4999993;28;92036;-49
2022/10/31 05:50:01;;;;;;;0.53;0.53;;;;;;;;;;5014150;28;92144;-49
2022/10/31 05:52:29;;;;;;;0.60;0.60;;;;;;;;;;5018168;28;94081;-48
2022/10/31 05:54:57;;;;;;;0.70;0.70;;;;;;;;;;5018613;28;94906;-49
2022/10/31 05:57:27;;;;;;;0.53;0.53;;;;;;;;;;5017504;28;92115;-49
2022/10/31 05:59:55;;;;;;;0.50;0.50;;;;;;;;;;5017655;28;92104;-49
2022/10/31 06:02:23;;;;;;;0.70;0.70;;;;;;;;;;5017291;28;92880;-49
2022/10/31 06:04:52;;;;;;;0.50;0.50;;;;;;;;;;5015778;28;92775;-49
2022/10/31 06:07:20;;;;;;;1.00;0.70;;;;;;;;;;5018364;28;92081;-49
2022/10/31 06:09:49;;;;;;;0.40;0.40;;;;;;;;;;5019173;28;91363;-49
2022/10/31 06:12:17;;;;;;;0.50;0.50;;;;;;;;;;5018116;28;92922;-49
2022/10/31 06:14:46;;;;;;;0.60;0.60;;;;;;;;;;5018790;28;92445;-49
2022/10/31 06:17:15;;;;;;;0.50;0.50;;;;;;;;;;5019761;28;93092;-50
2022/10/31 06:19:43;;;;;;;2.10;0.70;;;;;;;;;;5031156;28;92197;-49
2022/10/31 06:22:12;;;;;;;1.17;0.90;;;;;;;;;;5015357;28;94303;-50
2022/10/31 06:24:40;;;;;;;1.37;0.80;;;;;;;;;;5014384;28;93831;-49
2022/10/31 06:27:08;;;;;;;0.70;0.70;;;;;;;;;;5016938;28;91987;-51
2022/10/31 06:29:37;;;;;;;1.20;0.83;;;;;;;;;;5014226;28;92095;-51
2022/10/31 06:32:06;;;;;;;0.80;0.80;;;;;;;;;;5014875;28;94280;-52
2022/10/31 06:34:35;;;;;;;1.87;1.37;;;;;;;;;;5017509;28;92724;-54
2022/10/31 06:37:03;;;;;;;2.80;1.63;;;;;;;;;;5015818;28;92065;-55
2022/10/31 06:39:31;;;;;;;1.30;1.03;;;;;;;;;;5017057;28;91985;-55
2022/10/31 06:42:00;;;;;;;3.77;1.73;;;;;;;;;;5016785;28;94907;-55
2022/10/31 06:44:28;;;;;;;1.57;1.17;;;;;;;;;;5016534;28;94671;-54
2022/10/31 06:46:56;;;;;;;5.13;2.30;;;;;;;;;;5016820;28;92092;-54
2022/10/31 06:49:26;;;;;;;1.63;1.50;;;;;;;;;;5016283;28;92184;-54
2022/10/31 06:51:55;;;;;;;2.10;1.83;;;;;;;;;;5014483;28;92729;-54
2022/10/31 06:54:23;;;;;;;3.60;1.77;;;;;;;;;;5013267;28;93499;-54
2022/10/31 06:56:52;;;;;;;3.53;2.10;;;;;;;;;;5015591;28;92100;-55
2022/10/31 06:59:20;;;;;;;3.30;2.43;;;;;;;;;;5016125;28;92355;-54
2022/10/31 07:01:48;;;;;;;3.27;2.13;;;;;;;;;;5015634;28;94209;-54
2022/10/31 07:04:17;;;;;;;1.93;1.70;;;;;;;;;;5014355;28;92695;-55
2022/10/31 07:06:46;;;;;;;2.10;1.57;;;;;;;;;;5007543;28;92842;-53
2022/10/31 07:09:19;;;;;;;2.50;1.73;;;;;;;;;;5016949;28;93856;-55
2022/10/31 07:11:47;;;;;;;2.00;1.13;;;;;;;;;;5016585;28;94051;-54
2022/10/31 07:14:15;;;;;;;2.07;1.60;;;;;;;;;;5015289;28;93060;-53
2022/10/31 07:16:43;;;;;;;1.73;1.50;;;;;;;;;;5016988;28;92200;-53
2022/10/31 07:19:12;;;;;;;2.30;1.53;;;;;;;;;;5020205;28;92181;-52
2022/10/31 07:21:40;;;;;;;2.07;1.77;;;;;;;;;;5019561;28;94139;-52
2022/10/31 07:24:10;;;;;;;1.53;1.10;;;;;;;;;;5019055;28;93898;-53
2022/10/31 07:26:38;;;;;;;1.30;1.10;;;;;;;;;;5019336;28;91959;-52
2022/10/31 07:29:06;;;;;;;1.10;1.00;;;;;;;;;;5020052;28;92133;-53
2022/10/31 07:31:35;;;;;;;1.83;1.00;;;;;;;;;;5017590;28;95195;-55
2022/10/31 07:34:03;;;;;;;1.63;1.40;;;;;;;;;;5019389;28;94876;-53
2022/10/31 07:36:31;;;;;;;1.53;1.20;;;;;;;;;;5019011;28;92187;-52
2022/10/31 07:39:02;;;;;;;1.37;1.10;;;;;;;;;;5020636;28;92145;-52
2022/10/31 07:41:31;;;;;;;1.23;1.10;;;;;;;;;;5017612;28;94181;-53
2022/10/31 07:44:00;;;;;;;2.13;1.43;;;;;;;;;;5020653;28;93188;-52
2022/10/31 07:46:28;;;;;;;2.13;1.40;;;;;;;;;;5016604;28;92168;-52
2022/10/31 07:48:56;;;;;;;2.00;1.43;;;;;;;;;;5019347;28;91252;-51
2022/10/31 07:51:25;;;;;;;1.33;1.23;;;;;;;;;;5018379;28;94104;-51
2022/10/31 07:53:53;;;;;;;2.03;1.10;;;;;;;;;;5018948;28;93670;-51
2022/10/31 07:56:21;;;;;;;1.43;1.00;;;;;;;;;;5020290;28;93046;-51
2022/10/31 07:58:51;;;;;;;2.57;1.23;;;;;;;;;;5017982;28;92106;-51
2022/10/31 08:01:19;;;;;;;3.10;0.97;;;;;;;;;;5016869;28;94262;-51
2022/10/31 08:03:47;;;;;;;3.53;1.27;;;;;;;;;;5018956;28;93864;-51
2022/10/31 08:06:16;;;;;;;1.33;1.23;;;;;;;;;;5019554;28;92228;-51
2022/10/31 08:08:44;;;;;;;1.87;1.10;;;;;;;;;;5010803;28;92097;-51
2022/10/31 08:11:12;;;;;;;1.23;1.13;;;;;;;;;;5004791;28;93046;-52
2022/10/31 08:13:42;;;;;;;1.27;1.17;;;;;;;;;;5015519;28;93841;-51
2022/10/31 08:16:12;;;;;;;1.33;1.23;;;;;;;;;;5011360;28;92025;-51
2022/10/31 08:18:40;;;;;;;1.60;1.00;;;;;;;;;;5009245;28;92123;-52
2022/10/31 08:21:08;;;;;;;1.77;1.20;;;;;;;;;;5013995;28;93007;-51
2022/10/31 08:23:37;;;;;;;2.10;1.37;;;;;;;;;;5003434;28;94833;-51
2022/10/31 08:26:06;;;;;;;2.50;1.10;;;;;;;;;;4999902;28;92030;-51
2022/10/31 08:28:34;;;;;;;1.00;0.90;;;;;;;;;;5013323;28;92432;-52
2022/10/31 08:31:02;;;;;;;4.37;1.10;;;;;;;;;;5019098;28;93639;-51
2022/10/31 08:33:32;;;;;;;3.20;1.73;;;;;;;;;;5018742;28;93872;-51
2022/10/31 08:36:00;;;;;;;1.33;1.17;;;;;;;;;;5020034;28;92065;-51
2022/10/31 08:38:28;;;;;;;1.47;1.10;;;;;;;;;;5019156;28;91423;-51
2022/10/31 08:40:57;;;;;;;2.70;1.60;;;;;;;;;;5018129;28;94007;-51
2022/10/31 08:43:25;;;;;;;2.80;1.10;;;;;;;;;;5018746;28;92760;-51
2022/10/31 08:45:54;;;;;;;2.23;1.47;;;;;;;;;;5019708;28;92991;-52
2022/10/31 08:48:23;;;;;;;3.90;1.20;;;;;;;;;;5018660;28;91963;-51
2022/10/31 08:50:53;;;;;;;1.73;1.40;;;;;;;;;;5019124;28;93994;-51
2022/10/31 08:53:22;;;;;;;3.03;1.47;;;;;;;;;;5019371;28;92907;-51
2022/10/31 08:55:50;;;;;;;1.83;1.47;;;;;;;;;;4999749;28;92283;-51
2022/10/31 08:58:19;;;;;;;3.83;1.47;;;;;;;;;;5011156;28;92381;-51
2022/10/31 09:00:49;;;;;;;1.97;1.43;;;;;;;;;;5008915;28;94239;-52
2022/10/31 09:03:18;;;;;;;3.30;1.30;;;;;;;;;;5001400;28;92863;-52
2022/10/31 09:05:46;;;;;;;3.50;1.77;;;;;;;;;;5008553;28;92060;-52
2022/10/31 09:08:16;;;;;;;3.97;1.30;;;;;;;;;;5039834;28;92048;-51
2022/10/31 09:10:44;;;;;;;3.00;1.57;;;;;;;;;;5038826;28;95319;-50
2022/10/31 09:13:13;;;;;;;2.30;1.43;;;;;;;;;;5038778;28;94897;-51
2022/10/31 09:15:42;;;;;;;1.40;1.30;;;;;;;;;;5039631;28;92117;-53
2022/10/31 09:18:10;;;;;;;2.57;1.37;;;;;;;;;;5017058;28;92069;-51
2022/10/31 09:20:39;;;;;;;3.33;1.57;;;;;;;;;;4999104;28;94215;-52
2022/10/31 09:23:07;;;;;;;1.43;1.33;;;;;;;;;;4998854;28;92584;-52
2022/10/31 09:25:37;;;;;;;2.07;1.30;;;;;;;;;;5013474;28;92046;-52
2022/10/31 09:28:06;;;;;;;2.07;1.20;;;;;;;;;;5017569;28;91300;-52
2022/10/31 09:30:35;;;;;;;2.50;1.87;;;;;;;;;;5011359;28;93251;-51
2022/10/31 09:33:03;;;;;;;5.13;2.00;;;;;;;;;;5017594;28;93008;-53
2022/10/31 09:35:32;;;;;;;2.53;1.80;;;;;;;;;;5017237;28;93286;-52
2022/10/31 09:38:00;;;;;;;1.37;1.13;;;;;;;;;;5017449;28;91898;-52
2022/10/31 09:40:34;;;;;;;3.20;1.50;;;;;;;;;;5010473;28;92649;-51
2022/10/31 09:43:05;;;;;;;1.77;1.67;;;;;;;;;;5016367;28;92784;-52
2022/10/31 09:45:35;;;;;;;3.27;1.73;;;;;;;;;;5013416;28;92165;-51
2022/10/31 09:48:07;;;;;;;4.03;1.73;;;;;;;;;;5017952;28;92482;-51
2022/10/31 09:50:39;;;;;;;2.27;1.37;;;;;;;;;;5018808;28;94219;-51
2022/10/31 09:53:09;;;;;;;2.03;1.30;;;;;;;;;;5019210;28;93785;-52
2022/10/31 09:55:39;;;;;;;4.77;2.30;;;;;;;;;;5018934;28;92122;-51
2022/10/31 09:58:08;;;;;;;2.63;1.43;;;;;;;;;;5019115;28;92071;-51
2022/10/31 10:00:37;;;;;;;4.10;1.80;;;;;;;;;;5018089;28;94158;-52
2022/10/31 10:03:08;;;;;;;5.33;1.70;;;;;;;;;;5018811;28;93767;-52
2022/10/31 10:05:38;;;;;;;3.80;1.77;;;;;;;;;;5019159;28;91968;-52
2022/10/31 10:08:09;;;;;;;1.80;1.40;;;;;;;;;;5018853;28;92069;-51
2022/10/31 10:10:40;;;;;;;2.20;1.63;;;;;;;;;;5018447;28;94390;-52
2022/10/31 10:13:17;;;;;;;2.27;1.13;;;;;;;;;;5018484;28;93053;-52
2022/10/31 10:15:51;;;;;;;7.07;1.83;;;;;;;;;;5019301;28;92126;-52
2022/10/31 10:18:22;;;;;;;3.50;1.90;;;;;;;;;;5019159;28;91328;-51
2022/10/31 10:20:54;;;;;;;2.20;1.03;;;;;;;;;;5018532;28;93604;-52
2022/10/31 10:23:25;;;;;;;2.40;1.27;;;;;;;;;;5018165;28;93877;-52
2022/10/31 10:25:55;;;;;;;2.17;1.17;;;;;;;;;;5018018;28;92978;-51
2022/10/31 10:28:25;;;;;;;1.20;0.93;;;;;;;;;;5018881;28;92086;-51
2022/10/31 10:30:55;;;;;;;1.53;1.43;;;;;;;;;;5018515;28;94175;-52
2022/10/31 10:33:25;;;;;;;1.77;1.50;;;;;;;;;;5018242;28;92660;-52
2022/10/31 10:35:54;;;;;;;7.87;1.57;;;;;;;;;;5018409;28;92054;-51
2022/10/31 10:38:24;;;;;;;3.67;1.43;;;;;;;;;;5018554;28;92046;-51
2022/10/31 10:40:53;;;;;;;1.23;1.13;;;;;;;;;;5018186;28;93308;-51
2022/10/31 10:43:24;;;;;;;3.63;1.83;;;;;;;;;;5018096;28;92768;-52
2022/10/31 10:48:43;;;;;;;1.77;1.67;;;;;;;;;;5018771;28;92094;-53
2022/10/31 10:51:19;;;;;;;1.50;1.30;;;;;;;;;;5021304;28;95100;-51
2022/10/31 10:54:16;;;;;;;1.77;1.30;;;;;;;;;;5021574;28;93317;-52
2022/10/31 10:56:48;;;;;;;3.77;1.10;;;;;;;;;;5004176;28;91978;-52
2022/10/31 10:59:18;;;;;;;3.27;1.20;;;;;;;;;;5001040;28;92175;-51
2022/10/31 11:01:47;;;;;;;2.00;1.43;;;;;;;;;;5001365;28;93121;-51
2022/10/31 11:04:23;;;;;;;2.50;1.40;;;;;;;;;;4993935;28;92847;-52
2022/10/31 11:06:58;;;;;;;2.07;1.60;;;;;;;;;;5001207;28;92079;-52
2022/10/31 11:09:26;;;;;;;5.80;1.30;;;;;;;;;;5001823;28;91411;-51
2022/10/31 11:11:55;;;;;;;3.40;1.77;;;;;;;;;;5000829;28;92897;-51
2022/10/31 11:14:23;;;;;;;3.57;2.00;;;;;;;;;;5000290;28;94236;-51
2022/10/31 11:16:55;;;;;;;1.40;1.30;;;;;;;;;;5001018;28;93720;-52
2022/10/31 11:19:25;;;;;;;3.73;1.07;;;;;;;;;;5001091;28;92059;-51
2022/10/31 11:21:53;;;;;;;4.27;2.00;;;;;;;;;;5000753;28;93896;-52
2022/10/31 11:24:22;;;;;;;2.13;1.50;;;;;;;;;;5001269;28;92734;-51
2022/10/31 11:26:51;;;;;;;2.37;1.60;;;;;;;;;;5018098;28;92012;-52
2022/10/31 11:29:24;;;;;;;7.87;2.03;;;;;;;;;;5020977;28;92071;-52
2022/10/31 11:31:55;;;;;;;3.37;1.70;;;;;;;;;;5021284;28;94216;-51
2022/10/31 11:34:27;;;;;;;2.17;1.70;;;;;;;;;;5021585;28;93926;-52
2022/10/31 11:36:55;;;;;;;2.40;1.80;;;;;;;;;;5021016;28;91988;-51
2022/10/31 11:39:24;;;;;;;5.00;1.63;;;;;;;;;;5021179;28;92113;-51
2022/10/31 11:41:53;;;;;;;3.43;2.13;;;;;;;;;;5019310;28;94125;-51
2022/10/31 11:44:22;;;;;;;2.90;1.37;;;;;;;;;;5019514;28;93913;-51
2022/10/31 11:46:51;;;;;;;5.00;1.70;;;;;;;;;;5020494;28;92172;-51
2022/10/31 11:49:22;;;;;;;4.40;1.93;;;;;;;;;;5020420;28;92046;-51
2022/10/31 11:51:50;;;;;;;2.93;1.60;;;;;;;;;;5020137;28;93994;-52
2022/10/31 11:54:21;;;;;;;6.07;2.23;;;;;;;;;;5020938;28;92853;-52
2022/10/31 11:56:49;;;;;;;2.53;1.83;;;;;;;;;;5020595;28;93186;-51
2022/10/31 11:59:19;;;;;;;3.93;1.77;;;;;;;;;;5020621;28;91354;-52
2022/10/31 12:01:48;;;;;;;3.57;1.30;;;;;;;;;;5018957;28;93970;-51
2022/10/31 12:04:16;;;;;;;2.33;2.13;;;;;;;;;;5020622;28;92697;-51
2022/10/31 12:06:46;;;;;;;3.90;1.97;;;;;;;;;;5020206;28;93073;-52
2022/10/31 12:09:18;;;;;;;3.30;1.80;;;;;;;;;;5020615;28;92075;-52
2022/10/31 12:11:48;;;;;;;4.00;2.00;;;;;;;;;;5019683;28;94274;-53
2022/10/31 12:14:19;;;;;;;4.83;2.10;;;;;;;;;;5020727;28;92888;-52
2022/10/31 12:16:49;;;;;;;1.90;1.70;;;;;;;;;;5020696;28;92063;-52
2022/10/31 12:19:19;;;;;;;3.53;1.97;;;;;;;;;;5020571;28;92113;-52
2022/10/31 12:21:59;;;;;;;4.20;2.37;;;;;;;;;;5020542;28;93966;-53
2022/10/31 12:24:30;;;;;;;6.93;2.53;;;;;;;;;;5006547;28;94154;-51
2022/10/31 12:27:01;;;;;;;7.60;3.03;;;;;;;;;;5009958;28;92021;-53
2022/10/31 12:29:34;;;;;;;6.83;2.90;;;;;;;;;;5020205;28;92111;-52
2022/10/31 12:32:07;;;;;;;7.30;3.03;;;;;;;;;;5019387;28;94047;-51
2022/10/31 12:34:48;;;;;;;4.07;2.77;;;;;;;;;;5019546;28;92611;-51
2022/10/31 12:37:20;;;;;;;7.87;3.00;;;;;;;;;;5020042;28;92018;-51
2022/10/31 12:39:51;;;;;;;7.43;3.37;;;;;;;;;;5020224;28;91956;-51
2022/10/31 12:42:21;;;;;;;4.83;3.13;;;;;;;;;;5019698;28;94120;-51
2022/10/31 12:44:57;;;;;;;6.43;3.23;;;;;;;;;;5019564;28;93944;-52
2022/10/31 12:47:35;;;;;;;7.07;3.70;;;;;;;;;;5019760;28;92288;-51
2022/10/31 12:50:08;;;;;;;3.97;2.73;;;;;;;;;;5020538;28;91398;-51
2022/10/31 12:52:44;;;;;;;5.80;3.17;;;;;;;;;;5019741;28;94149;-52
2022/10/31 12:55:17;;;;;;;5.90;3.57;;;;;;;;;;5019269;28;93726;-52
2022/10/31 12:57:46;;;;;;;5.77;4.37;;;;;;;;;;5019159;28;93017;-51
2022/10/31 13:00:16;;;;;;;7.37;3.97;;;;;;;;;;5020016;28;92114;-51
2022/10/31 13:02:46;;;;;;;6.80;3.57;;;;;;;;;;5019816;28;92913;-52
2022/10/31 13:05:15;;;;;;;5.97;2.90;;;;;;;;;;5018803;28;92947;-51
2022/10/31 13:07:46;;;;;;;6.83;3.63;;;;;;;;;;5019495;28;92206;-51
2022/10/31 13:10:17;;;;;;;6.23;3.60;;;;;;;;;;5019331;28;92104;-51
2022/10/31 13:12:45;;;;;;;7.80;3.17;;;;;;;;;;5019099;28;93294;-51
2022/10/31 13:15:16;;;;;;;10.03;3.80;;;;;;;;;;5019121;28;94056;-51
2022/10/31 13:17:46;;;;;;;6.73;4.17;;;;;;;;;;5019893;28;92114;-51
2022/10/31 13:20:17;;;;;;;10.23;4.13;;;;;;;;;;5019605;28;92030;-51
2022/10/31 13:22:47;;;;;;;6.67;2.97;;;;;;;;;;5018450;28;94916;-51
2022/10/31 13:25:16;;;;;;;6.33;3.27;;;;;;;;;;5019100;28;93764;-51
2022/10/31 13:27:48;;;;;;;5.13;2.83;;;;;;;;;;5019243;28;91967;-52
2022/10/31 13:30:17;;;;;;;3.93;2.73;;;;;;;;;;5019515;28;92057;-51
2022/10/31 13:32:46;;;;;;;6.03;2.67;;;;;;;;;;5019128;28;93144;-51
2022/10/31 13:35:15;;;;;;;8.17;3.77;;;;;;;;;;5019246;28;92935;-52
2022/10/31 13:37:45;;;;;;;6.10;3.80;;;;;;;;;;5019395;28;92114;-52
2022/10/31 13:40:23;;;;;;;6.23;3.37;;;;;;;;;;5019551;28;91343;-51
2022/10/31 13:42:54;;;;;;;5.53;3.23;;;;;;;;;;5018783;28;92891;-52
2022/10/31 13:45:23;;;;;;;5.00;3.17;;;;;;;;;;5018929;28;93797;-51
2022/10/31 13:47:58;;;;;;;5.60;3.07;;;;;;;;;;5019565;28;93004;-52
2022/10/31 13:50:28;;;;;;;9.70;3.87;;;;;;;;;;5019184;28;92046;-51
2022/10/31 13:53:14;;;;;;;8.10;3.57;;;;;;;;;;5019017;28;94428;-51
2022/10/31 13:55:44;;;;;;;9.63;3.53;;;;;;;;;;5018847;28;93798;-51
2022/10/31 13:58:23;;;;;;;7.50;3.10;;;;;;;;;;5018970;28;91970;-51
2022/10/31 14:01:01;;;;;;;9.30;4.33;;;;;;;;;;5018547;28;92128;-51
2022/10/31 14:03:30;;;;;;;12.73;3.90;;;;;;;;;;5018365;28;94061;-52
2022/10/31 14:06:18;;;;;;;5.67;3.00;;;;;;;;;;5018096;28;92446;-51
2022/10/31 14:08:49;;;;;;;4.80;3.03;;;;;;;;;;5018657;28;91898;-51
2022/10/31 14:11:21;;;;;;;10.03;3.60;;;;;;;;;;5018847;28;91966;-51
2022/10/31 14:13:50;;;;;;;5.23;3.40;;;;;;;;;;5018114;28;93023;-51
2022/10/31 14:16:20;;;;;;;6.50;3.37;;;;;;;;;;5017931;28;92949;-52
2022/10/31 14:18:49;;;;;;;6.97;3.93;;;;;;;;;;5019055;28;92029;-51
2022/10/31 14:21:18;;;;;;;8.73;4.13;;;;;;;;;;5018845;28;92047;-52
2022/10/31 14:23:46;;;;;;;8.60;3.57;;;;;;;;;;5017605;28;94115;-51
2022/10/31 14:26:22;;;;;;;7.20;3.90;;;;;;;;;;5021124;28;92832;-51
2022/10/31 14:28:50;;;;;;;7.23;3.77;;;;;;;;;;5022004;28;92097;-52
2022/10/31 14:31:36;;;;;;;8.20;3.10;;;;;;;;;;5022485;28;91125;-51
2022/10/31 14:34:20;;;;;;;6.80;3.40;;;;;;;;;;5021582;28;94143;-51
2022/10/31 14:36:51;;;;;;;7.50;3.50;;;;;;;;;;5021164;28;92653;-52
2022/10/31 14:39:22;;;;;;;7.10;3.60;;;;;;;;;;5021876;28;92849;-51
2022/10/31 14:41:58;;;;;;;8.10;4.43;;;;;;;;;;5021669;28;92061;-50
2022/10/31 14:44:32;;;;;;;6.70;3.53;;;;;;;;;;5021359;28;94266;-51
2022/10/31 14:47:02;;;;;;;6.87;3.73;;;;;;;;;;5020644;28;93189;-51
2022/10/31 14:49:35;;;;;;;8.83;4.03;;;;;;;;;;5021875;28;92024;-52
2022/10/31 14:52:03;;;;;;;9.27;3.33;;;;;;;;;;5021728;28;92018;-51
2022/10/31 14:54:32;;;;;;;7.17;2.87;;;;;;;;;;5021523;28;92944;-51
2022/10/31 14:57:04;;;;;;;7.50;4.57;;;;;;;;;;5020598;28;92850;-52
2022/10/31 14:59:33;;;;;;;6.83;4.33;;;;;;;;;;5021912;28;91985;-53
2022/10/31 15:02:02;;;;;;;5.37;3.83;;;;;;;;;;5021597;28;91934;-51